Bookmark and Share
Track history (hours):
 

Knossos Palace

Last reported at 2014-Apr-24 21:33 UTC. Time now 2014-Apr-24 22:03 UTC.
Position N 36°10' E 024°35'.

Length 214 m; beam 26.4 m; draft 7.3 m.

Type: Passenger vessel. MMSI: 237641000.

NotesDate/timePositionNaut miles runAvg speedWind from/ knotsBaromVisibWave heightAir tempDewpointWater temp
2014-Apr-24 21:33N 36°10' E 024°35'1919.3
2014-Apr-24 20:34N 35°54' E 024°47'2019.6
2014-Apr-24 19:33N 35°37' E 024°59'1814.6
2014-Apr-24 18:19N 35°21' E 025°09'0 0.0
2014-Apr-24 16:06N 35°21' E 025°09'0 0.0
2014-Apr-24 15:24N 35°21' E 025°09'0 0.0
2014-Apr-24 14:33N 35°21' E 025°09'0 0.0
2014-Apr-24 13:27N 35°21' E 025°09'0 0.0
2014-Apr-24 11:33N 35°21' E 025°09'0 0.0
2014-Apr-24 10:28N 35°21' E 025°09'0 0.0
2014-Apr-24 09:31N 35°21' E 025°09'0 0.0
2014-Apr-24 07:13N 35°21' E 025°09'0 0.0
2014-Apr-24 06:12N 35°21' E 025°09'0 0.0
2014-Apr-24 03:31N 35°21' E 025°09'1515.7
2014-Apr-24 02:33N 35°34' E 025°00'2019.6
2014-Apr-24 01:33N 35°51' E 024°48'2019.6
2014-Apr-24 00:33N 36°08' E 024°36'2019.6
2014-Apr-23 23:33N 36°25' E 024°24'1919.1
2014-Apr-23 22:33N 36°42' E 024°13'1918.8
2014-Apr-23 21:33N 36°59' E 024°04'3819.0
2014-Apr-23 19:33N 37°35' E 023°45'1918.9
2014-Apr-23 18:33N 37°52' E 023°37'5 4.2
2014-Apr-23 17:28N 37°57' E 023°38'0 0.0
2014-Apr-23 16:29N 37°57' E 023°38'0 0.0
2014-Apr-23 15:28N 37°57' E 023°38'0 0.0
2014-Apr-23 14:31N 37°57' E 023°38'0 0.0
2014-Apr-23 13:31N 37°57' E 023°38'0 0.0
2014-Apr-23 12:31N 37°57' E 023°38'0 0.0
2014-Apr-23 11:31N 37°57' E 023°38'0 0.0
2014-Apr-23 10:31N 37°57' E 023°38'0 0.0
2014-Apr-23 09:31N 37°57' E 023°38'0 0.0
2014-Apr-23 08:31N 37°57' E 023°38'0 0.0
2014-Apr-23 07:31N 37°57' E 023°38'0 0.0
2014-Apr-23 06:28N 37°57' E 023°38'0 0.0
2014-Apr-23 05:28N 37°57' E 023°38'0 0.0
2014-Apr-23 04:31N 37°57' E 023°38'1 1.3
2014-Apr-23 03:34N 37°56' E 023°37'1818.4
2014-Apr-23 02:33N 37°39' E 023°46'2120.0
2014-Apr-23 01:31N 37°19' E 023°55'1920.1
2014-Apr-23 00:33N 37°01' E 024°04'713.3
2014-Apr-23 00:00N 36°54' E 024°06'1329.7 variable / 101014.910.8 20.012.620.0
2014-Apr-22 23:33N 36°42' E 024°14'2120.8
2014-Apr-22 22:33N 36°24' E 024°25'2120.7
2014-Apr-22 21:33N 36°06' E 024°38'2120.9
2014-Apr-22 20:33N 35°48' E 024°51'2120.4
2014-Apr-22 19:33N 35°30' E 025°04'10 2.6
2014-Apr-22 15:32N 35°21' E 025°09'1717.3
2014-Apr-22 14:33N 35°36' E 024°59'2424.4
2014-Apr-22 13:34N 35°57' E 024°44'2424.4
2014-Apr-22 12:34N 36°18' E 024°29'9824.4
2014-Apr-22 08:33N 37°47' E 023°38'10 9.7
2014-Apr-22 07:32N 37°57' E 023°38'0 0.0
2014-Apr-22 06:32N 37°57' E 023°38'0 0.0
2014-Apr-22 05:32N 37°57' E 023°38'0 0.0
2014-Apr-22 04:32N 37°57' E 023°38'0 0.0
2014-Apr-22 03:33N 37°57' E 023°38'1312.8
2014-Apr-22 02:33N 37°45' E 023°44'5421.0
2014-Apr-22 00:00N 36°54' E 024°06'915.9 200 / 161013.910.8 19.014.220.0
2014-Apr-21 23:26N 36°46' E 024°11'1820.6
2014-Apr-21 22:33N 36°30' E 024°21'2020.3
2014-Apr-21 21:33N 36°12' E 024°33'2121.0
2014-Apr-21 20:34N 35°54' E 024°46'2120.8
2014-Apr-21 19:33N 35°36' E 024°60'1716.7
2014-Apr-21 18:31N 35°21' E 025°09'0 0.0
2014-Apr-21 17:11N 35°21' E 025°09'0 0.0
2014-Apr-21 16:29N 35°21' E 025°09'0 0.0
2014-Apr-21 15:32N 35°21' E 025°09'0 0.0
2014-Apr-21 14:29N 35°21' E 025°09'0 0.0
2014-Apr-21 13:29N 35°21' E 025°09'0 0.0
2014-Apr-21 12:32N 35°21' E 025°09'0 0.0
2014-Apr-21 11:32N 35°21' E 025°09'0 0.0
2014-Apr-21 10:32N 35°21' E 025°09'0 0.0
2014-Apr-21 09:29N 35°21' E 025°09'0 0.0
2014-Apr-21 08:32N 35°21' E 025°09'0 0.0
2014-Apr-21 07:29N 35°21' E 025°09'0 0.0
2014-Apr-21 06:32N 35°21' E 025°09'0 0.0
2014-Apr-21 05:32N 35°21' E 025°09'0 0.0
2014-Apr-21 04:32N 35°21' E 025°09'2 2.0
2014-Apr-21 03:33N 35°23' E 025°09'1919.1
2014-Apr-21 02:33N 35°39' E 024°57'1918.9
2014-Apr-21 01:33N 35°55' E 024°45'1818.3
2014-Apr-21 00:33N 36°11' E 024°34'1918.2
2014-Apr-20 23:31N 36°27' E 024°22'1817.9
2014-Apr-20 22:31N 36°43' E 024°12'1817.9
2014-Apr-20 21:30N 37°00' E 024°04'3918.3
2014-Apr-20 19:22N 37°36' E 023°45'1417.8
2014-Apr-20 18:33N 37°49' E 023°37'7 7.2
2014-Apr-20 17:33N 37°57' E 023°38'0 0.0
2014-Apr-20 16:33N 37°57' E 023°38'0 0.0
2014-Apr-20 15:33N 37°57' E 023°38'0 0.0
2014-Apr-20 14:33N 37°57' E 023°38'0 0.0
2014-Apr-20 13:33N 37°57' E 023°38'0 0.0
2014-Apr-20 12:33N 37°57' E 023°38'0 0.0
2014-Apr-20 11:33N 37°57' E 023°38'0 0.0
2014-Apr-20 10:30N 37°57' E 023°38'0 0.0
2014-Apr-20 09:33N 37°57' E 023°38'0 0.0
2014-Apr-20 08:33N 37°57' E 023°38'0 0.0
2014-Apr-20 07:33N 37°57' E 023°38'0 0.0
2014-Apr-20 06:33N 37°57' E 023°38'0 0.0
2014-Apr-20 05:33N 37°57' E 023°38'0 0.0
2014-Apr-20 04:33N 37°57' E 023°38'0 0.0
2014-Apr-20 03:33N 37°57' E 023°38'0 0.0
2014-Apr-20 02:33N 37°57' E 023°38'0 0.0
2014-Apr-20 01:33N 37°57' E 023°38'0 0.0
2014-Apr-20 00:30N 37°57' E 023°38'0 0.0
2014-Apr-19 23:33N 37°57' E 023°38'0 0.0
2014-Apr-19 22:33N 37°57' E 023°38'0 0.0
2014-Apr-19 21:33N 37°57' E 023°38'0 0.0
2014-Apr-19 20:33N 37°57' E 023°38'0 0.0
2014-Apr-19 19:33N 37°57' E 023°38'0 0.0
2014-Apr-19 18:33N 37°57' E 023°38'0 0.0
2014-Apr-19 17:33N 37°57' E 023°38'0 0.0
2014-Apr-19 16:33N 37°57' E 023°38'0 0.0
2014-Apr-19 15:30N 37°57' E 023°38'0 0.0
2014-Apr-19 14:33N 37°57' E 023°38'0 0.0
2014-Apr-19 13:33N 37°57' E 023°38'0 0.0
2014-Apr-19 12:33N 37°57' E 023°38'0 0.0
2014-Apr-19 11:33N 37°57' E 023°38'0 0.0
2014-Apr-19 10:33N 37°57' E 023°38'0 0.0
2014-Apr-19 09:33N 37°57' E 023°38'0 0.0
2014-Apr-19 08:30N 37°57' E 023°38'0 0.0
2014-Apr-19 07:27N 37°57' E 023°38'0 0.0
2014-Apr-19 06:30N 37°57' E 023°38'0 0.0
2014-Apr-19 05:30N 37°57' E 023°38'0 0.0
2014-Apr-19 04:30N 37°57' E 023°38'2 2.0
2014-Apr-19 03:33N 37°55' E 023°38'5919.4
2014-Apr-19 00:30N 36°60' E 024°05'1919.2
2014-Apr-18 23:29N 36°42' E 024°14'2418.6
2014-Apr-18 22:12N 36°20' E 024°28'1218.3
2014-Apr-18 21:32N 36°10' E 024°35'1919.1
2014-Apr-18 20:33N 35°53' E 024°47'1919.6
2014-Apr-18 19:33N 35°37' E 024°58'1 0.0
2014-Apr-18 02:33N 35°37' E 024°58'1918.7
2014-Apr-18 01:33N 35°54' E 024°47'1818.1
2014-Apr-18 00:33N 36°09' E 024°35'1918.8
2014-Apr-17 23:33N 36°25' E 024°23'1919.0
2014-Apr-17 22:33N 36°42' E 024°12'5819.3
2014-Apr-17 19:33N 37°36' E 023°45'1818.6
2014-Apr-17 18:34N 37°53' E 023°37'4 3.6
2014-Apr-17 17:33N 37°57' E 023°38'0 0.0
2014-Apr-17 16:33N 37°57' E 023°38'0 0.0
2014-Apr-17 15:33N 37°57' E 023°38'1716.6
2014-Apr-17 14:33N 37°41' E 023°46'3724.6
2014-Apr-17 13:03N 37°06' E 024°02'1224.3
2014-Apr-17 12:33N 36°55' E 024°07'2424.4
2014-Apr-17 11:34N 36°33' E 024°19'2423.9
2014-Apr-17 10:33N 36°12' E 024°34'2423.9
2014-Apr-17 09:34N 35°51' E 024°48'2424.0
2014-Apr-17 08:33N 35°30' E 025°04'10 2.4
2014-Apr-17 04:16N 35°21' E 025°09'4 5.0
2014-Apr-17 03:23N 35°25' E 025°07'1618.6
2014-Apr-17 02:33N 35°38' E 024°58'1918.8
2014-Apr-17 01:33N 35°55' E 024°46'1919.0
2014-Apr-17 00:33N 36°11' E 024°34'1118.9
2014-Apr-17 00:00N 36°18' E 024°24'1023.3 230 / 131009.410.8 17.412.520.0
2014-Apr-16 23:33N 36°28' E 024°22'2019.8
2014-Apr-16 22:33N 36°46' E 024°10'2219.2
2014-Apr-16 21:26N 37°06' E 024°01'3618.9
2014-Apr-16 19:33N 37°39' E 023°44'1818.2
2014-Apr-16 18:34N 37°56' E 023°37'1 1.1
2014-Apr-16 17:32N 37°57' E 023°38'0 0.0
2014-Apr-16 16:32N 37°57' E 023°38'0 0.0
2014-Apr-16 15:34N 37°57' E 023°38'1515.2
2014-Apr-16 14:33N 37°42' E 023°44'2824.7
2014-Apr-16 13:25N 37°16' E 023°57'2124.7
2014-Apr-16 12:34N 36°56' E 024°07'2524.9
2014-Apr-16 11:34N 36°33' E 024°19'2424.3
2014-Apr-16 10:33N 36°12' E 024°33'2424.2
2014-Apr-16 09:33N 35°51' E 024°49'2624.5
2014-Apr-16 08:30N 35°29' E 025°05'4 0.7
2014-Apr-16 03:05N 35°32' E 025°02'1119.9
2014-Apr-16 02:33N 35°41' E 024°56'2019.7
2014-Apr-16 01:33N 35°58' E 024°43'2019.6
2014-Apr-16 00:32N 36°15' E 024°31'610.9
2014-Apr-16 00:00N 36°18' E 024°24'1227.1 240 / 301011.710.8 16.512.320.0
2014-Apr-15 23:32N 36°30' E 024°20'1818.0
2014-Apr-15 22:33N 36°46' E 024°11'1918.6
2014-Apr-15 21:32N 37°04' E 024°02'1919.0
2014-Apr-15 20:31N 37°21' E 023°52'1919.2
2014-Apr-15 19:33N 37°38' E 023°43'1818.0
2014-Apr-15 18:33N 37°56' E 023°37'1 1.4
2014-Apr-15 17:31N 37°57' E 023°38'0 0.0
2014-Apr-15 16:31N 37°57' E 023°38'0 0.0
2014-Apr-15 15:31N 37°57' E 023°38'0 0.0
2014-Apr-15 14:31N 37°57' E 023°38'0 0.0
2014-Apr-15 12:32N 37°57' E 023°38'0 0.0
2014-Apr-15 11:32N 37°57' E 023°38'0 0.0
2014-Apr-15 10:32N 37°57' E 023°38'0 0.0
2014-Apr-15 09:32N 37°57' E 023°38'0 0.0
2014-Apr-15 08:32N 37°57' E 023°38'0 0.0
2014-Apr-15 07:32N 37°57' E 023°38'0 0.0
2014-Apr-15 06:32N 37°57' E 023°38'0 0.0
2014-Apr-15 05:32N 37°57' E 023°38'0 0.0
2014-Apr-15 02:33N 37°57' E 023°38'1514.7
2014-Apr-15 01:34N 37°43' E 023°44'2020.1
2014-Apr-15 00:34N 37°24' E 023°53'3255.6
2014-Apr-15 00:00N 36°54' E 024°06'1227.1 variable / 101014.110.8 16.012.720.0
2014-Apr-14 23:33N 37°05' E 024°02'2120.0
2014-Apr-14 22:32N 36°46' E 024°12'2020.2
2014-Apr-14 21:34N 36°29' E 024°22'  

Dump ship's entire track history

sailing weather and tide predictions

Knossos Palace — SYQO — position and weather